Time;durP1;ratioP1;P1;durP2;ratioP2;P2;SDS_P1;SDS_P2;PMS_P1;PMS_P2;Temp;Humidity;BMP_temperature;BMP_pressure;BME280_temperature;BME280_humidity;BME280_pressure;Samples;Min_cycle;Max_cycle;Signal;HPM_P1;HPM_P2
2024/01/23 08:56:03;;;;;;;;;;;;;;;;;;5773008;23;19922;-90
2024/01/23 10:25:43;;;;;;;;;;;;;;;;;;4926362;29;19918;-92
2024/01/23 10:28:10;;;;;;;;;;;;;;;;;;4949899;29;19978;-91
2024/01/23 10:30:38;;;;;;;;;;;;;;;;;;4942093;29;19918;-93
2024/01/23 10:33:10;;;;;;;;;;;;;;;;;;4924651;29;19923;-93
2024/01/23 10:35:35;;;;;;;;;;;;;;;;;;4941338;29;19915;-93
2024/01/23 10:38:02;;;;;;;;;;;;;;;;;;4942287;29;19921;-93
2024/01/23 10:40:28;;;;;;;;;;;;;;;;;;4941591;29;19914;-89
2024/01/23 10:42:55;;;;;;;;;;;;;;;;;;4943674;29;19925;-89
2024/01/23 10:45:20;;;;;;;;;;;;;;;;;;4943316;29;19915;-90
2024/01/23 10:47:46;;;;;;;;;;;;;;;;;;4946460;29;19922;-90
2024/01/23 10:50:15;;;;;;;;;;;;;;;;;;4947568;29;19914;-88
2024/01/23 10:52:44;;;;;;;;;;;;;;;;;;4943557;29;19937;-92
2024/01/23 10:55:10;;;;;;;;;;;;;;;;;;4922390;29;19964;-89
2024/01/23 10:57:36;;;;;;;;;;;;;;;;;;4940907;29;19919;-92
2024/01/23 11:00:04;;;;;;;;;;;;;;;;;;4923906;29;20290;-88
2024/01/23 11:02:34;;;;;;;;;;;;;;;;;;4937701;29;19918;-90
2024/01/23 11:05:00;;;;;;;;;;;;;;;;;;4937393;29;19915;-90
2024/01/23 11:07:45;;;;;;;;;;;;;;;;;;4937501;29;19918;-89
2024/01/23 11:10:17;;;;;;;;;;;;;;;;;;4936857;29;19922;-92
2024/01/23 11:13:05;;;;;;;;;;;;;;;;;;4937673;29;20150;-92
2024/01/23 11:15:31;;;;;;;;;;;;;;;;;;4938078;29;19962;-93
2024/01/23 11:18:15;;;;;;;;;;;;;;;;;;4937386;29;19919;-90
2024/01/23 11:20:40;;;;;;;;;;;;;;;;;;4934118;29;19991;-93
2024/01/23 11:23:12;;;;;;;;;;;;;;;;;;4919329;29;19962;-93
2024/01/23 11:25:39;;;;;;;;;;;;;;;;;;4937169;29;20013;-90
2024/01/23 11:28:04;;;;;;;;;;;;;;;;;;4937381;29;19919;-91
2024/01/23 11:30:29;;;;;;;;;;;;;;;;;;4937262;29;19938;-89
2024/01/23 11:33:15;;;;;;;;;;;;;;;;;;4922089;29;20281;-94
2024/01/23 11:35:59;;;;;;;;;;;;;;;;;;4937660;29;19914;-91
2024/01/23 11:38:37;;;;;;;;;;;;;;;;;;4937181;29;20400;-90
2024/01/23 11:41:11;;;;;;;;;;;;;;;;;;4937118;29;20361;-90
2024/01/23 11:43:36;;;;;;;;;;;;;;;;;;4937132;29;19954;-91
2024/01/23 11:46:02;;;;;;;;;;;;;;;;;;4937150;29;19954;-89
2024/01/23 11:48:28;;;;;;;;;;;;;;;;;;4937003;29;19915;-89
2024/01/23 11:50:54;;;;;;;;;;;;;;;;;;4937022;29;19919;-92
2024/01/23 11:53:21;;;;;;;;;;;;;;;;;;4939000;29;19922;-94
2024/01/23 11:55:47;;;;;;;;;;;;;;;;;;4945218;29;19926;-87
2024/01/23 11:58:12;;;;;;;;;;;;;;;;;;4942102;29;19914;-89
2024/01/23 12:00:38;;;;;;;;;;;;;;;;;;4946492;29;19914;-90
2024/01/23 12:03:08;;;;;;;;;;;;;;;;;;4956251;29;19922;-91
2024/01/23 12:05:35;;;;;;;;;;;;;;;;;;4951364;29;19914;-90
2024/01/23 12:08:01;;;;;;;;;;;;;;;;;;4943179;29;19918;-90
2024/01/23 12:10:27;;;;;;;;;;;;;;;;;;4938185;29;20401;-93
2024/01/23 12:12:56;;;;;;;;;;;;;;;;;;4938320;29;19915;-94
2024/01/23 12:15:22;;;;;;;;;;;;;;;;;;4937022;29;20254;-89
2024/01/23 12:17:50;;;;;;;;;;;;;;;;;;4940217;29;19970;-91
2024/01/23 12:20:16;;;;;;;;;;;;;;;;;;4947716;29;20005;-90
2024/01/23 12:22:42;;;;;;;;;;;;;;;;;;4951727;29;19961;-89
2024/01/23 12:25:07;;;;;;;;;;;;;;;;;;4943872;29;19918;-92
2024/01/23 12:27:33;;;;;;;;;;;;;;;;;;4937718;29;20285;-91
2024/01/23 12:29:59;;;;;;;;;;;;;;;;;;4937252;29;19915;-92
2024/01/23 12:32:28;;;;;;;;;;;;;;;;;;4940730;29;19914;-91
2024/01/23 12:34:54;;;;;;;;;;;;;;;;;;4940457;29;19973;-90
2024/01/23 12:37:23;;;;;;;;;;;;;;;;;;4941023;29;19915;-88
2024/01/23 12:39:49;;;;;;;;;;;;;;;;;;4940357;29;20009;-92
2024/01/23 12:42:14;;;;;;;;;;;;;;;;;;4941816;29;20365;-90
2024/01/23 12:44:41;;;;;;;;;;;;;;;;;;4940642;29;19919;-91
2024/01/23 12:47:07;;;;;;;;;;;;;;;;;;4940202;29;19910;-91
2024/01/23 17:13:24;;;;;;;;;;;;;;;;;;4916884;29;19948;-89
2024/01/23 17:15:49;;;;;;;;;;;;;;;;;;4932094;29;20025;-90
2024/01/23 17:18:15;;;;;;;;;;;;;;;;;;4918795;29;19972;-90
2024/01/23 17:20:43;;;;;;;;;;;;;;;;;;4919723;29;19961;-89
2024/01/23 17:23:11;;;;;;;;;;;;;;;;;;4920731;29;19922;-89
2024/01/23 17:25:38;;;;;;;;;;;;;;;;;;4919817;29;19915;-87
2024/01/23 17:28:04;;;;;;;;;;;;;;;;;;4919510;29;19963;-89
2024/01/23 17:30:39;;;;;;;;;;;;;;;;;;4919114;29;19962;-88
2024/01/23 17:33:05;;;;;;;;;;;;;;;;;;4919643;29;19915;-90
2024/01/23 17:35:34;;;;;;;;;;;;;;;;;;4920672;29;20418;-88
2024/01/23 17:37:59;;;;;;;;;;;;;;;;;;4919325;29;20010;-88
2024/01/23 17:40:24;;;;;;;;;;;;;;;;;;4920798;29;20022;-88
2024/01/23 17:42:52;;;;;;;;;;;;;;;;;;4920566;29;20315;-88
2024/01/23 17:45:17;;;;;;;;;;;;;;;;;;4919068;29;20009;-88
2024/01/23 17:47:47;;;;;;;;;;;;;;;;;;4920299;29;19919;-89
2024/01/23 17:50:13;;;;;;;;;;;;;;;;;;4920526;29;19922;-90
2024/01/23 17:52:38;;;;;;;;;;;;;;;;;;4920599;29;19915;-89
2024/01/23 17:55:07;;;;;;;;;;;;;;;;;;4919331;29;19915;-89
2024/01/23 18:38:27;;;;;;;;;;;;;;;;;;4900412;29;19919;-93
2024/01/23 18:40:55;;;;;;;;;;;;;;;;;;4922748;29;19922;-91
2024/01/23 18:43:26;;;;;;;;;;;;;;;;;;4907147;29;19998;-90
2024/01/23 18:45:52;;;;;;;;;;;;;;;;;;4885018;29;19916;-92
2024/01/23 18:48:19;;;;;;;;;;;;;;;;;;4885126;29;19922;-92
2024/01/23 18:50:52;;;;;;;;;;;;;;;;;;4891564;29;19915;-91
2024/01/23 18:53:17;;;;;;;;;;;;;;;;;;4889360;29;20367;-92
2024/01/23 18:55:48;;;;;;;;;;;;;;;;;;4884311;29;19920;-93
2024/01/23 18:58:15;;;;;;;;;;;;;;;;;;4885209;29;19923;-93
2024/01/23 19:00:40;;;;;;;;;;;;;;;;;;4884311;29;19940;-93
2024/01/23 19:03:08;;;;;;;;;;;;;;;;;;4885963;29;20010;-93
2024/01/23 19:05:36;;;;;;;;;;;;;;;;;;4884847;29;19919;-94
2024/01/23 19:08:04;;;;;;;;;;;;;;;;;;4885278;29;19997;-93
2024/01/23 19:10:31;;;;;;;;;;;;;;;;;;4898568;29;19915;-93
2024/01/23 19:12:57;;;;;;;;;;;;;;;;;;4884528;29;19915;-92
2024/01/23 19:15:22;;;;;;;;;;;;;;;;;;4884540;29;20411;-91
2024/01/23 19:17:55;;;;;;;;;;;;;;;;;;4889681;29;19958;-92
2024/01/23 19:20:22;;;;;;;;;;;;;;;;;;4885988;29;20006;-91
2024/01/23 19:22:47;;;;;;;;;;;;;;;;;;4884621;29;19916;-92
2024/01/23 19:25:13;;;;;;;;;;;;;;;;;;4881310;29;19922;-93
2024/01/23 19:27:39;;;;;;;;;;;;;;;;;;4884235;29;20003;-93
2024/01/23 19:30:06;;;;;;;;;;;;;;;;;;4884179;29;19915;-89
2024/01/23 19:32:31;;;;;;;;;;;;;;;;;;4884712;29;19919;-92
2024/01/23 19:34:58;;;;;;;;;;;;;;;;;;4884320;29;20263;-93
2024/01/23 19:37:23;;;;;;;;;;;;;;;;;;4885917;29;20421;-94
2024/01/23 19:39:52;;;;;;;;;;;;;;;;;;4903524;29;19946;-94
2024/01/23 19:42:17;;;;;;;;;;;;;;;;;;4926081;29;19922;-93
2024/01/23 19:44:44;;;;;;;;;;;;;;;;;;4904893;29;19915;-95
2024/01/23 19:47:09;;;;;;;;;;;;;;;;;;4901180;29;19916;-93
2024/01/23 19:49:37;;;;;;;;;;;;;;;;;;4901486;29;19926;-95
2024/01/23 19:52:04;;;;;;;;;;;;;;;;;;4900465;29;19920;-94
2024/01/23 19:54:29;;;;;;;;;;;;;;;;;;4900073;29;19923;-94
2024/01/23 19:56:57;;;;;;;;;;;;;;;;;;4911773;29;20335;-92
2024/01/23 19:59:22;;;;;;;;;;;;;;;;;;4903998;29;19915;-91
2024/01/23 20:01:47;;;;;;;;;;;;;;;;;;4914857;29;20339;-92
2024/01/23 20:04:13;;;;;;;;;;;;;;;;;;4913851;29;19915;-91
2024/01/23 20:06:38;;;;;;;;;;;;;;;;;;4899933;29;20454;-91
2024/01/23 20:09:04;;;;;;;;;;;;;;;;;;4916079;29;19931;-96
2024/01/23 20:11:29;;;;;;;;;;;;;;;;;;4901052;29;20283;-96
2024/01/23 20:13:57;;;;;;;;;;;;;;;;;;4902974;29;19922;-94
2024/01/23 20:16:23;;;;;;;;;;;;;;;;;;4921480;29;19923;-92
2024/01/23 20:18:48;;;;;;;;;;;;;;;;;;4899193;29;20008;-94
2024/01/23 20:21:14;;;;;;;;;;;;;;;;;;4900015;29;20415;-93
2024/01/23 20:23:39;;;;;;;;;;;;;;;;;;4899567;29;19971;-93
2024/01/23 20:26:04;;;;;;;;;;;;;;;;;;4899059;29;20366;-94
2024/01/23 20:28:29;;;;;;;;;;;;;;;;;;4899273;29;20344;-93
2024/01/23 20:30:57;;;;;;;;;;;;;;;;;;4914471;29;20349;-92
2024/01/23 20:33:22;;;;;;;;;;;;;;;;;;4900231;29;19923;-93
2024/01/23 20:35:48;;;;;;;;;;;;;;;;;;4902136;29;19922;-93
2024/01/23 20:38:13;;;;;;;;;;;;;;;;;;4896618;29;19919;-92
2024/01/23 20:40:39;;;;;;;;;;;;;;;;;;4909701;29;20409;-94
2024/01/23 20:43:04;;;;;;;;;;;;;;;;;;4899888;29;19923;-94
2024/01/23 20:45:29;;;;;;;;;;;;;;;;;;4891685;29;19916;-96
2024/01/23 20:47:55;;;;;;;;;;;;;;;;;;4901980;29;19922;-92
2024/01/23 20:50:20;;;;;;;;;;;;;;;;;;4907439;29;19915;-94
2024/01/23 20:52:46;;;;;;;;;;;;;;;;;;4917030;29;19926;-95
2024/01/23 20:55:12;;;;;;;;;;;;;;;;;;4918309;29;19994;-95
2024/01/23 20:57:40;;;;;;;;;;;;;;;;;;4918632;29;19954;-95
2024/01/23 21:00:07;;;;;;;;;;;;;;;;;;4916354;29;19945;-91
2024/01/23 21:02:33;;;;;;;;;;;;;;;;;;4904710;29;19939;-94
2024/01/23 21:04:58;;;;;;;;;;;;;;;;;;4902566;29;20386;-91
2024/01/23 21:07:24;;;;;;;;;;;;;;;;;;4902316;29;19919;-92
2024/01/23 21:09:49;;;;;;;;;;;;;;;;;;4914764;29;19915;-95
2024/01/23 21:12:15;;;;;;;;;;;;;;;;;;4906253;29;19963;-96
2024/01/23 21:14:43;;;;;;;;;;;;;;;;;;4911709;29;19923;-95
2024/01/23 21:17:09;;;;;;;;;;;;;;;;;;4912709;29;19903;-94
2024/01/23 21:19:34;;;;;;;;;;;;;;;;;;4908622;29;20282;-96
2024/01/23 21:21:59;;;;;;;;;;;;;;;;;;4908950;29;19998;-95
2024/01/23 21:24:26;;;;;;;;;;;;;;;;;;4908067;29;19915;-91
2024/01/23 21:26:52;;;;;;;;;;;;;;;;;;4903889;29;19926;-93
2024/01/23 21:29:17;;;;;;;;;;;;;;;;;;4903677;29;19971;-94
2024/01/23 21:31:42;;;;;;;;;;;;;;;;;;4903474;29;20264;-94
2024/01/23 21:34:08;;;;;;;;;;;;;;;;;;4903583;29;19915;-95
2024/01/23 21:36:33;;;;;;;;;;;;;;;;;;4908799;29;19923;-93
2024/01/23 21:38:58;;;;;;;;;;;;;;;;;;4923613;29;19924;-94
2024/01/23 21:41:24;;;;;;;;;;;;;;;;;;4917297;29;19940;-94
2024/01/23 21:43:49;;;;;;;;;;;;;;;;;;4908531;29;20403;-93
2024/01/23 21:46:15;;;;;;;;;;;;;;;;;;4903172;29;19920;-93
2024/01/23 21:48:40;;;;;;;;;;;;;;;;;;4900864;29;19925;-94
2024/01/23 21:51:07;;;;;;;;;;;;;;;;;;4902702;29;19915;-93
2024/01/23 21:53:33;;;;;;;;;;;;;;;;;;4918014;29;19967;-93
2024/01/23 21:55:58;;;;;;;;;;;;;;;;;;4902629;29;19915;-94
2024/01/23 21:58:24;;;;;;;;;;;;;;;;;;4901863;29;19919;-95
2024/01/23 22:00:50;;;;;;;;;;;;;;;;;;4904941;29;19927;-92
2024/01/23 22:03:15;;;;;;;;;;;;;;;;;;4918391;29;20006;-96
2024/01/23 22:05:41;;;;;;;;;;;;;;;;;;4906236;29;19915;-95
2024/01/23 22:08:06;;;;;;;;;;;;;;;;;;4902414;29;19916;-96
2024/01/23 22:10:32;;;;;;;;;;;;;;;;;;4910215;29;19927;-95
2024/01/23 22:13:36;;;;;;;;;;;;;;;;;;4912658;29;19915;-93
2024/01/23 22:16:03;;;;;;;;;;;;;;;;;;4900468;29;19971;-94
2024/01/23 22:18:28;;;;;;;;;;;;;;;;;;4920037;29;20363;-94
2024/01/23 22:20:59;;;;;;;;;;;;;;;;;;5111338;23;20003;-94
2024/01/23 22:26:47;;;;;;;;;;;;;;;;;;4914403;29;19925;-92
2024/01/23 22:29:23;;;;;;;;;;;;;;;;;;4928708;29;19961;-94
2024/01/23 22:31:58;;;;;;;;;;;;;;;;;;4929259;29;19958;-94
2024/01/23 22:34:23;;;;;;;;;;;;;;;;;;4930307;29;19915;-95
2024/01/23 22:36:52;;;;;;;;;;;;;;;;;;4932847;29;20283;-94
2024/01/23 22:39:17;;;;;;;;;;;;;;;;;;4928909;29;19922;-94
2024/01/23 22:41:43;;;;;;;;;;;;;;;;;;4924220;29;19915;-94
2024/01/23 22:44:08;;;;;;;;;;;;;;;;;;4924306;29;19919;-95
2024/01/23 22:46:36;;;;;;;;;;;;;;;;;;4926797;29;20362;-93
2024/01/23 22:49:04;;;;;;;;;;;;;;;;;;4925008;29;19914;-95
2024/01/23 22:51:32;;;;;;;;;;;;;;;;;;4920643;29;19915;-93
2024/01/23 22:53:58;;;;;;;;;;;;;;;;;;4919510;29;19915;-95
2024/01/23 22:56:23;;;;;;;;;;;;;;;;;;4906700;29;19970;-95
2024/01/23 22:58:49;;;;;;;;;;;;;;;;;;4914612;29;19919;-96
2024/01/23 23:01:14;;;;;;;;;;;;;;;;;;4901118;29;19920;-94
2024/01/23 23:03:40;;;;;;;;;;;;;;;;;;4916565;29;20293;-95
2024/01/23 23:06:05;;;;;;;;;;;;;;;;;;4918767;29;19915;-94
2024/01/23 23:08:31;;;;;;;;;;;;;;;;;;4918483;29;19915;-95
2024/01/23 23:10:56;;;;;;;;;;;;;;;;;;4918666;29;20370;-95
2024/01/23 23:13:21;;;;;;;;;;;;;;;;;;4915718;29;20002;-94
2024/01/23 23:15:47;;;;;;;;;;;;;;;;;;4918219;29;19919;-95
2024/01/23 23:18:12;;;;;;;;;;;;;;;;;;4919006;29;20326;-94
